sensor_id;sensor_type;location;lat;lon;timestamp;P1;durP1;ratioP1;P2;durP2;ratioP2
41141;SDS011;63666;52.284;20.890;2023-07-09T00:02:28;7.90;;;7.10;;
41141;SDS011;63666;52.284;20.890;2023-07-09T00:05:01;8.20;;;7.10;;
41141;SDS011;63666;52.284;20.890;2023-07-09T00:07:35;7.80;;;7.00;;
41141;SDS011;63666;52.284;20.890;2023-07-09T00:10:19;8.20;;;7.30;;
41141;SDS011;63666;52.284;20.890;2023-07-09T00:12:53;7.70;;;6.90;;
41141;SDS011;63666;52.284;20.890;2023-07-09T00:15:28;7.70;;;6.90;;
41141;SDS011;63666;52.284;20.890;2023-07-09T00:18:03;8.00;;;7.20;;
41141;SDS011;63666;52.284;20.890;2023-07-09T00:20:41;8.10;;;7.20;;
41141;SDS011;63666;52.284;20.890;2023-07-09T00:23:21;7.70;;;6.90;;
41141;SDS011;63666;52.284;20.890;2023-07-09T00:25:58;8.40;;;7.00;;
41141;SDS011;63666;52.284;20.890;2023-07-09T00:28:36;7.60;;;6.70;;
41141;SDS011;63666;52.284;20.890;2023-07-09T00:31:15;8.00;;;6.70;;
41141;SDS011;63666;52.284;20.890;2023-07-09T00:33:52;8.00;;;6.60;;
41141;SDS011;63666;52.284;20.890;2023-07-09T00:36:32;7.50;;;6.70;;
41141;SDS011;63666;52.284;20.890;2023-07-09T00:39:16;7.80;;;6.80;;
41141;SDS011;63666;52.284;20.890;2023-07-09T00:41:55;7.70;;;6.90;;
41141;SDS011;63666;52.284;20.890;2023-07-09T00:44:32;7.30;;;6.60;;
41141;SDS011;63666;52.284;20.890;2023-07-09T00:47:25;8.00;;;6.50;;
41141;SDS011;63666;52.284;20.890;2023-07-09T00:50:14;7.30;;;6.50;;
41141;SDS011;63666;52.284;20.890;2023-07-09T00:52:55;7.00;;;6.30;;
41141;SDS011;63666;52.284;20.890;2023-07-09T00:55:36;6.90;;;6.20;;
41141;SDS011;63666;52.284;20.890;2023-07-09T00:58:18;7.00;;;6.30;;
41141;SDS011;63666;52.284;20.890;2023-07-09T01:01:04;7.00;;;6.30;;
41141;SDS011;63666;52.284;20.890;2023-07-09T01:03:44;7.70;;;6.50;;
41141;SDS011;63666;52.284;20.890;2023-07-09T01:06:23;7.70;;;6.40;;
41141;SDS011;63666;52.284;20.890;2023-07-09T01:09:04;7.50;;;6.20;;
41141;SDS011;63666;52.284;20.890;2023-07-09T01:11:45;7.20;;;6.00;;
41141;SDS011;63666;52.284;20.890;2023-07-09T01:14:20;7.10;;;6.30;;
41141;SDS011;63666;52.284;20.890;2023-07-09T01:17:02;7.10;;;6.20;;
41141;SDS011;63666;52.284;20.890;2023-07-09T01:19:42;7.50;;;6.50;;
41141;SDS011;63666;52.284;20.890;2023-07-09T01:22:21;7.30;;;6.30;;
41141;SDS011;63666;52.284;20.890;2023-07-09T01:25:04;7.00;;;6.30;;
41141;SDS011;63666;52.284;20.890;2023-07-09T01:27:43;6.60;;;5.90;;
41141;SDS011;63666;52.284;20.890;2023-07-09T01:30:25;6.90;;;6.00;;
41141;SDS011;63666;52.284;20.890;2023-07-09T01:33:03;7.70;;;6.10;;
41141;SDS011;63666;52.284;20.890;2023-07-09T01:35:39;6.50;;;5.80;;
41141;SDS011;63666;52.284;20.890;2023-07-09T01:38:15;6.90;;;6.10;;
41141;SDS011;63666;52.284;20.890;2023-07-09T01:40:51;6.80;;;5.90;;
41141;SDS011;63666;52.284;20.890;2023-07-09T01:43:26;6.50;;;5.90;;
41141;SDS011;63666;52.284;20.890;2023-07-09T01:46:02;7.10;;;6.40;;
41141;SDS011;63666;52.284;20.890;2023-07-09T01:48:36;7.00;;;6.30;;
41141;SDS011;63666;52.284;20.890;2023-07-09T01:51:16;6.50;;;5.90;;
41141;SDS011;63666;52.284;20.890;2023-07-09T01:53:53;6.80;;;6.00;;
41141;SDS011;63666;52.284;20.890;2023-07-09T01:56:30;7.00;;;6.30;;
41141;SDS011;63666;52.284;20.890;2023-07-09T01:59:08;7.20;;;6.50;;
41141;SDS011;63666;52.284;20.890;2023-07-09T02:01:44;7.40;;;6.60;;
41141;SDS011;63666;52.284;20.890;2023-07-09T02:04:19;6.80;;;6.10;;
41141;SDS011;63666;52.284;20.890;2023-07-09T02:06:54;7.20;;;6.10;;
41141;SDS011;63666;52.284;20.890;2023-07-09T02:09:32;7.00;;;6.10;;
41141;SDS011;63666;52.284;20.890;2023-07-09T02:12:08;6.90;;;6.20;;
41141;SDS011;63666;52.284;20.890;2023-07-09T02:14:44;6.80;;;6.10;;
41141;SDS011;63666;52.284;20.890;2023-07-09T02:17:19;6.90;;;6.10;;
41141;SDS011;63666;52.284;20.890;2023-07-09T02:19:58;7.00;;;5.90;;
41141;SDS011;63666;52.284;20.890;2023-07-09T02:22:37;7.60;;;6.10;;
41141;SDS011;63666;52.284;20.890;2023-07-09T02:25:14;7.50;;;6.20;;
41141;SDS011;63666;52.284;20.890;2023-07-09T02:27:49;6.60;;;5.90;;
41141;SDS011;63666;52.284;20.890;2023-07-09T02:30:26;7.40;;;5.90;;
41141;SDS011;63666;52.284;20.890;2023-07-09T02:33:01;6.70;;;6.00;;
41141;SDS011;63666;52.284;20.890;2023-07-09T02:35:39;7.40;;;6.10;;
41141;SDS011;63666;52.284;20.890;2023-07-09T02:38:13;6.70;;;5.80;;
41141;SDS011;63666;52.284;20.890;2023-07-09T02:40:50;6.90;;;5.60;;
41141;SDS011;63666;52.284;20.890;2023-07-09T02:43:25;6.10;;;5.30;;
41141;SDS011;63666;52.284;20.890;2023-07-09T02:46:00;7.00;;;5.30;;
41141;SDS011;63666;52.284;20.890;2023-07-09T02:48:38;6.70;;;5.40;;
41141;SDS011;63666;52.284;20.890;2023-07-09T02:51:11;6.40;;;5.70;;
41141;SDS011;63666;52.284;20.890;2023-07-09T02:53:46;6.00;;;5.10;;
41141;SDS011;63666;52.284;20.890;2023-07-09T02:56:22;5.90;;;5.30;;
41141;SDS011;63666;52.284;20.890;2023-07-09T02:59:04;6.30;;;5.40;;
41141;SDS011;63666;52.284;20.890;2023-07-09T03:01:41;6.50;;;5.30;;
41141;SDS011;63666;52.284;20.890;2023-07-09T03:04:17;6.30;;;5.30;;
41141;SDS011;63666;52.284;20.890;2023-07-09T03:06:54;5.70;;;5.10;;
41141;SDS011;63666;52.284;20.890;2023-07-09T03:09:32;6.20;;;5.20;;
41141;SDS011;63666;52.284;20.890;2023-07-09T03:12:08;6.00;;;5.00;;
41141;SDS011;63666;52.284;20.890;2023-07-09T03:14:46;6.10;;;5.40;;
41141;SDS011;63666;52.284;20.890;2023-07-09T03:17:22;6.40;;;5.20;;
41141;SDS011;63666;52.284;20.890;2023-07-09T03:19:57;5.80;;;5.10;;
41141;SDS011;63666;52.284;20.890;2023-07-09T03:22:30;6.00;;;5.00;;
41141;SDS011;63666;52.284;20.890;2023-07-09T03:25:05;6.50;;;5.10;;
41141;SDS011;63666;52.284;20.890;2023-07-09T03:27:39;5.90;;;5.10;;
41141;SDS011;63666;52.284;20.890;2023-07-09T03:30:13;5.90;;;4.80;;
41141;SDS011;63666;52.284;20.890;2023-07-09T03:32:48;6.80;;;5.10;;
41141;SDS011;63666;52.284;20.890;2023-07-09T03:35:24;5.80;;;5.00;;
41141;SDS011;63666;52.284;20.890;2023-07-09T03:38:01;6.50;;;5.10;;
41141;SDS011;63666;52.284;20.890;2023-07-09T03:40:37;6.00;;;5.10;;
41141;SDS011;63666;52.284;20.890;2023-07-09T03:43:11;6.20;;;4.80;;
41141;SDS011;63666;52.284;20.890;2023-07-09T03:45:46;5.80;;;4.90;;
41141;SDS011;63666;52.284;20.890;2023-07-09T03:48:20;5.90;;;5.00;;
41141;SDS011;63666;52.284;20.890;2023-07-09T03:50:54;6.10;;;4.80;;
41141;SDS011;63666;52.284;20.890;2023-07-09T03:53:27;6.60;;;5.10;;
41141;SDS011;63666;52.284;20.890;2023-07-09T03:56:01;6.30;;;4.90;;
41141;SDS011;63666;52.284;20.890;2023-07-09T03:58:34;5.80;;;4.60;;
41141;SDS011;63666;52.284;20.890;2023-07-09T04:01:08;6.00;;;4.70;;
41141;SDS011;63666;52.284;20.890;2023-07-09T04:03:46;5.50;;;4.40;;
41141;SDS011;63666;52.284;20.890;2023-07-09T04:06:24;6.50;;;4.60;;
41141;SDS011;63666;52.284;20.890;2023-07-09T04:09:00;5.90;;;4.30;;
41141;SDS011;63666;52.284;20.890;2023-07-09T04:11:35;5.90;;;4.50;;
41141;SDS011;63666;52.284;20.890;2023-07-09T04:14:11;5.60;;;4.10;;
41141;SDS011;63666;52.284;20.890;2023-07-09T04:16:49;5.80;;;4.30;;
41141;SDS011;63666;52.284;20.890;2023-07-09T04:19:26;5.70;;;4.10;;
41141;SDS011;63666;52.284;20.890;2023-07-09T04:22:06;6.00;;;4.20;;
41141;SDS011;63666;52.284;20.890;2023-07-09T04:24:40;5.90;;;4.10;;
41141;SDS011;63666;52.284;20.890;2023-07-09T04:27:15;6.20;;;4.00;;
41141;SDS011;63666;52.284;20.890;2023-07-09T04:29:51;5.80;;;4.00;;
41141;SDS011;63666;52.284;20.890;2023-07-09T04:32:26;5.20;;;3.60;;
41141;SDS011;63666;52.284;20.890;2023-07-09T04:35:02;5.30;;;3.80;;
41141;SDS011;63666;52.284;20.890;2023-07-09T04:37:38;5.40;;;3.70;;
41141;SDS011;63666;52.284;20.890;2023-07-09T04:40:13;5.40;;;3.50;;
41141;SDS011;63666;52.284;20.890;2023-07-09T04:42:48;5.50;;;3.70;;
41141;SDS011;63666;52.284;20.890;2023-07-09T04:45:26;4.80;;;3.40;;
41141;SDS011;63666;52.284;20.890;2023-07-09T04:48:05;5.20;;;3.80;;
41141;SDS011;63666;52.284;20.890;2023-07-09T04:50:40;5.80;;;3.80;;
41141;SDS011;63666;52.284;20.890;2023-07-09T04:53:15;5.00;;;3.40;;
41141;SDS011;63666;52.284;20.890;2023-07-09T04:55:52;5.60;;;3.40;;
41141;SDS011;63666;52.284;20.890;2023-07-09T04:58:31;5.50;;;3.80;;
41141;SDS011;63666;52.284;20.890;2023-07-09T05:01:06;4.70;;;3.50;;
41141;SDS011;63666;52.284;20.890;2023-07-09T05:03:41;5.20;;;3.30;;
41141;SDS011;63666;52.284;20.890;2023-07-09T05:06:16;5.10;;;3.30;;
41141;SDS011;63666;52.284;20.890;2023-07-09T05:08:49;5.40;;;3.30;;
41141;SDS011;63666;52.284;20.890;2023-07-09T05:11:27;4.30;;;3.00;;
41141;SDS011;63666;52.284;20.890;2023-07-09T05:14:04;4.60;;;3.10;;
41141;SDS011;63666;52.284;20.890;2023-07-09T05:16:42;5.10;;;3.10;;
41141;SDS011;63666;52.284;20.890;2023-07-09T05:19:17;5.20;;;3.20;;
41141;SDS011;63666;52.284;20.890;2023-07-09T05:21:51;4.80;;;3.30;;
41141;SDS011;63666;52.284;20.890;2023-07-09T05:24:25;5.50;;;3.10;;
41141;SDS011;63666;52.284;20.890;2023-07-09T05:27:03;5.50;;;3.30;;
41141;SDS011;63666;52.284;20.890;2023-07-09T05:29:37;4.90;;;2.90;;
41141;SDS011;63666;52.284;20.890;2023-07-09T05:32:11;4.40;;;2.80;;
41141;SDS011;63666;52.284;20.890;2023-07-09T05:34:48;5.00;;;2.80;;
41141;SDS011;63666;52.284;20.890;2023-07-09T05:37:28;4.80;;;3.10;;
41141;SDS011;63666;52.284;20.890;2023-07-09T05:40:04;4.70;;;2.90;;
41141;SDS011;63666;52.284;20.890;2023-07-09T05:42:39;5.20;;;2.80;;
41141;SDS011;63666;52.284;20.890;2023-07-09T05:45:12;5.10;;;3.00;;
41141;SDS011;63666;52.284;20.890;2023-07-09T05:47:46;5.50;;;2.60;;
41141;SDS011;63666;52.284;20.890;2023-07-09T05:50:22;5.80;;;3.00;;
41141;SDS011;63666;52.284;20.890;2023-07-09T05:53:02;7.60;;;3.40;;
41141;SDS011;63666;52.284;20.890;2023-07-09T05:55:39;10.60;;;4.60;;
41141;SDS011;63666;52.284;20.890;2023-07-09T05:58:16;9.40;;;3.60;;
41141;SDS011;63666;52.284;20.890;2023-07-09T06:00:52;9.10;;;3.90;;
41141;SDS011;63666;52.284;20.890;2023-07-09T06:03:28;8.80;;;3.60;;
41141;SDS011;63666;52.284;20.890;2023-07-09T06:06:02;7.80;;;3.50;;
41141;SDS011;63666;52.284;20.890;2023-07-09T06:08:39;7.30;;;3.20;;
41141;SDS011;63666;52.284;20.890;2023-07-09T06:11:14;6.00;;;3.00;;
41141;SDS011;63666;52.284;20.890;2023-07-09T06:13:50;6.30;;;3.10;;
41141;SDS011;63666;52.284;20.890;2023-07-09T06:16:23;6.10;;;2.90;;
41141;SDS011;63666;52.284;20.890;2023-07-09T06:19:00;4.90;;;2.70;;
41141;SDS011;63666;52.284;20.890;2023-07-09T06:21:34;4.70;;;2.60;;
41141;SDS011;63666;52.284;20.890;2023-07-09T06:24:11;4.70;;;2.70;;
41141;SDS011;63666;52.284;20.890;2023-07-09T06:26:44;4.70;;;2.70;;
41141;SDS011;63666;52.284;20.890;2023-07-09T06:29:18;4.80;;;2.70;;
41141;SDS011;63666;52.284;20.890;2023-07-09T06:31:52;4.50;;;2.60;;
41141;SDS011;63666;52.284;20.890;2023-07-09T06:34:32;5.10;;;2.90;;
41141;SDS011;63666;52.284;20.890;2023-07-09T06:37:08;4.50;;;2.50;;
41141;SDS011;63666;52.284;20.890;2023-07-09T06:39:42;5.00;;;2.60;;
41141;SDS011;63666;52.284;20.890;2023-07-09T06:42:16;4.00;;;2.50;;
41141;SDS011;63666;52.284;20.890;2023-07-09T06:44:50;5.20;;;2.60;;
41141;SDS011;63666;52.284;20.890;2023-07-09T06:47:39;5.70;;;2.50;;
41141;SDS011;63666;52.284;20.890;2023-07-09T06:50:14;5.60;;;2.80;;
41141;SDS011;63666;52.284;20.890;2023-07-09T06:52:49;7.10;;;2.70;;
41141;SDS011;63666;52.284;20.890;2023-07-09T06:55:24;4.90;;;2.70;;
41141;SDS011;63666;52.284;20.890;2023-07-09T06:58:02;4.90;;;2.60;;
41141;SDS011;63666;52.284;20.890;2023-07-09T07:00:38;4.20;;;2.30;;
41141;SDS011;63666;52.284;20.890;2023-07-09T07:03:14;6.20;;;2.50;;
41141;SDS011;63666;52.284;20.890;2023-07-09T07:05:51;5.70;;;2.30;;
41141;SDS011;63666;52.284;20.890;2023-07-09T07:08:28;6.20;;;2.70;;
41141;SDS011;63666;52.284;20.890;2023-07-09T07:11:05;5.70;;;2.50;;
41141;SDS011;63666;52.284;20.890;2023-07-09T07:13:44;7.20;;;2.80;;
41141;SDS011;63666;52.284;20.890;2023-07-09T07:16:23;6.00;;;2.60;;
41141;SDS011;63666;52.284;20.890;2023-07-09T07:18:59;4.70;;;2.50;;
41141;SDS011;63666;52.284;20.890;2023-07-09T07:21:35;5.10;;;2.20;;
41141;SDS011;63666;52.284;20.890;2023-07-09T07:24:12;4.50;;;2.30;;
41141;SDS011;63666;52.284;20.890;2023-07-09T07:26:46;4.60;;;2.40;;
41141;SDS011;63666;52.284;20.890;2023-07-09T07:29:20;5.10;;;2.60;;
41141;SDS011;63666;52.284;20.890;2023-07-09T07:31:58;5.00;;;2.60;;
41141;SDS011;63666;52.284;20.890;2023-07-09T07:34:32;5.70;;;2.40;;
41141;SDS011;63666;52.284;20.890;2023-07-09T07:37:09;4.50;;;2.40;;
41141;SDS011;63666;52.284;20.890;2023-07-09T07:39:45;4.60;;;2.20;;
41141;SDS011;63666;52.284;20.890;2023-07-09T07:42:23;4.70;;;2.40;;
41141;SDS011;63666;52.284;20.890;2023-07-09T07:44:58;4.40;;;2.40;;
41141;SDS011;63666;52.284;20.890;2023-07-09T07:47:38;4.70;;;2.20;;
41141;SDS011;63666;52.284;20.890;2023-07-09T07:50:15;4.30;;;2.10;;
41141;SDS011;63666;52.284;20.890;2023-07-09T07:52:56;4.20;;;2.20;;
41141;SDS011;63666;52.284;20.890;2023-07-09T07:55:30;4.00;;;2.20;;
41141;SDS011;63666;52.284;20.890;2023-07-09T07:58:10;4.20;;;2.20;;
41141;SDS011;63666;52.284;20.890;2023-07-09T08:00:45;4.30;;;2.10;;
41141;SDS011;63666;52.284;20.890;2023-07-09T08:03:26;4.70;;;2.10;;
41141;SDS011;63666;52.284;20.890;2023-07-09T08:06:00;4.00;;;2.10;;
41141;SDS011;63666;52.284;20.890;2023-07-09T08:08:34;4.20;;;2.10;;
41141;SDS011;63666;52.284;20.890;2023-07-09T08:11:13;4.10;;;2.10;;
41141;SDS011;63666;52.284;20.890;2023-07-09T08:13:56;4.00;;;1.90;;
41141;SDS011;63666;52.284;20.890;2023-07-09T08:16:33;4.50;;;1.90;;
41141;SDS011;63666;52.284;20.890;2023-07-09T08:19:09;4.60;;;2.20;;
41141;SDS011;63666;52.284;20.890;2023-07-09T08:21:43;5.40;;;2.00;;
41141;SDS011;63666;52.284;20.890;2023-07-09T08:24:19;4.80;;;1.90;;
41141;SDS011;63666;52.284;20.890;2023-07-09T08:26:54;3.50;;;1.80;;
41141;SDS011;63666;52.284;20.890;2023-07-09T08:29:33;3.80;;;1.80;;
41141;SDS011;63666;52.284;20.890;2023-07-09T08:32:08;3.80;;;1.80;;
41141;SDS011;63666;52.284;20.890;2023-07-09T08:34:46;3.90;;;1.80;;
41141;SDS011;63666;52.284;20.890;2023-07-09T08:37:42;4.10;;;2.10;;
41141;SDS011;63666;52.284;20.890;2023-07-09T08:40:18;4.00;;;1.90;;
41141;SDS011;63666;52.284;20.890;2023-07-09T08:42:59;3.70;;;1.80;;
41141;SDS011;63666;52.284;20.890;2023-07-09T08:45:50;4.40;;;1.90;;
41141;SDS011;63666;52.284;20.890;2023-07-09T08:48:31;3.90;;;1.80;;
41141;SDS011;63666;52.284;20.890;2023-07-09T08:51:13;3.80;;;1.70;;
41141;SDS011;63666;52.284;20.890;2023-07-09T08:53:58;4.50;;;2.00;;
41141;SDS011;63666;52.284;20.890;2023-07-09T08:56:37;3.80;;;1.70;;
41141;SDS011;63666;52.284;20.890;2023-07-09T08:59:20;4.40;;;1.80;;
41141;SDS011;63666;52.284;20.890;2023-07-09T09:02:05;3.60;;;1.70;;
41141;SDS011;63666;52.284;20.890;2023-07-09T09:04:50;3.90;;;1.80;;
41141;SDS011;63666;52.284;20.890;2023-07-09T09:07:40;3.60;;;1.70;;
41141;SDS011;63666;52.284;20.890;2023-07-09T09:10:20;3.70;;;1.70;;
41141;SDS011;63666;52.284;20.890;2023-07-09T09:13:12;3.70;;;1.60;;
41141;SDS011;63666;52.284;20.890;2023-07-09T09:15:48;4.20;;;1.60;;
41141;SDS011;63666;52.284;20.890;2023-07-09T09:18:27;3.70;;;1.70;;
41141;SDS011;63666;52.284;20.890;2023-07-09T09:21:15;3.70;;;1.60;;
41141;SDS011;63666;52.284;20.890;2023-07-09T09:23:57;4.00;;;1.60;;
41141;SDS011;63666;52.284;20.890;2023-07-09T09:26:37;3.10;;;1.60;;
41141;SDS011;63666;52.284;20.890;2023-07-09T09:29:15;3.80;;;1.70;;
41141;SDS011;63666;52.284;20.890;2023-07-09T09:31:53;4.10;;;1.60;;
41141;SDS011;63666;52.284;20.890;2023-07-09T09:34:30;3.50;;;1.50;;
41141;SDS011;63666;52.284;20.890;2023-07-09T09:37:11;3.70;;;1.70;;
41141;SDS011;63666;52.284;20.890;2023-07-09T09:39:50;3.90;;;1.70;;
41141;SDS011;63666;52.284;20.890;2023-07-09T09:42:46;3.90;;;1.70;;
41141;SDS011;63666;52.284;20.890;2023-07-09T09:45:27;3.40;;;1.50;;
41141;SDS011;63666;52.284;20.890;2023-07-09T09:48:17;3.50;;;1.70;;
41141;SDS011;63666;52.284;20.890;2023-07-09T09:50:54;3.90;;;1.70;;
41141;SDS011;63666;52.284;20.890;2023-07-09T09:53:49;3.50;;;1.50;;
41141;SDS011;63666;52.284;20.890;2023-07-09T09:56:29;3.10;;;1.50;;
41141;SDS011;63666;52.284;20.890;2023-07-09T09:59:13;3.60;;;1.40;;
41141;SDS011;63666;52.284;20.890;2023-07-09T10:01:59;3.10;;;1.40;;
41141;SDS011;63666;52.284;20.890;2023-07-09T10:04:35;3.90;;;1.30;;
41141;SDS011;63666;52.284;20.890;2023-07-09T10:07:23;3.00;;;1.30;;
41141;SDS011;63666;52.284;20.890;2023-07-09T10:10:04;3.60;;;1.30;;
41141;SDS011;63666;52.284;20.890;2023-07-09T10:12:52;3.10;;;1.30;;
41141;SDS011;63666;52.284;20.890;2023-07-09T10:15:39;3.00;;;1.30;;
41141;SDS011;63666;52.284;20.890;2023-07-09T10:18:28;2.80;;;1.20;;
41141;SDS011;63666;52.284;20.890;2023-07-09T10:21:08;2.50;;;1.10;;
41141;SDS011;63666;52.284;20.890;2023-07-09T10:23:51;2.90;;;1.10;;
41141;SDS011;63666;52.284;20.890;2023-07-09T10:26:41;2.90;;;1.20;;
41141;SDS011;63666;52.284;20.890;2023-07-09T10:32:41;2.40;;;1.00;;
41141;SDS011;63666;52.284;20.890;2023-07-09T10:35:27;2.40;;;1.10;;
41141;SDS011;63666;52.284;20.890;2023-07-09T10:38:14;2.80;;;1.20;;
41141;SDS011;63666;52.284;20.890;2023-07-09T10:41:01;2.90;;;1.10;;
41141;SDS011;63666;52.284;20.890;2023-07-09T10:44:00;2.90;;;1.30;;
41141;SDS011;63666;52.284;20.890;2023-07-09T10:46:39;2.90;;;1.10;;
41141;SDS011;63666;52.284;20.890;2023-07-09T10:49:17;3.10;;;1.20;;
41141;SDS011;63666;52.284;20.890;2023-07-09T10:51:54;2.60;;;1.10;;
41141;SDS011;63666;52.284;20.890;2023-07-09T10:54:39;2.90;;;1.00;;
41141;SDS011;63666;52.284;20.890;2023-07-09T10:57:25;2.40;;;1.00;;
41141;SDS011;63666;52.284;20.890;2023-07-09T11:00:04;2.30;;;1.00;;
41141;SDS011;63666;52.284;20.890;2023-07-09T11:02:39;2.20;;;1.00;;
41141;SDS011;63666;52.284;20.890;2023-07-09T11:05:13;2.20;;;1.00;;
41141;SDS011;63666;52.284;20.890;2023-07-09T11:07:58;2.50;;;1.00;;
41141;SDS011;63666;52.284;20.890;2023-07-09T11:10:37;2.50;;;1.00;;
41141;SDS011;63666;52.284;20.890;2023-07-09T11:13:15;2.30;;;1.00;;
41141;SDS011;63666;52.284;20.890;2023-07-09T11:15:52;2.80;;;1.00;;
41141;SDS011;63666;52.284;20.890;2023-07-09T11:18:33;2.80;;;1.10;;
41141;SDS011;63666;52.284;20.890;2023-07-09T11:21:16;2.40;;;1.00;;
41141;SDS011;63666;52.284;20.890;2023-07-09T11:23:52;2.30;;;1.10;;
41141;SDS011;63666;52.284;20.890;2023-07-09T11:26:29;2.30;;;1.10;;
41141;SDS011;63666;52.284;20.890;2023-07-09T11:29:17;2.40;;;1.00;;
41141;SDS011;63666;52.284;20.890;2023-07-09T11:31:54;3.80;;;1.10;;
41141;SDS011;63666;52.284;20.890;2023-07-09T11:34:46;2.40;;;1.00;;
41141;SDS011;63666;52.284;20.890;2023-07-09T11:37:26;2.90;;;1.20;;
41141;SDS011;63666;52.284;20.890;2023-07-09T11:40:11;2.00;;;0.90;;
41141;SDS011;63666;52.284;20.890;2023-07-09T11:42:52;2.10;;;0.90;;
41141;SDS011;63666;52.284;20.890;2023-07-09T11:45:28;2.80;;;1.00;;
41141;SDS011;63666;52.284;20.890;2023-07-09T11:48:22;2.50;;;1.00;;
41141;SDS011;63666;52.284;20.890;2023-07-09T11:51:01;2.60;;;0.90;;
41141;SDS011;63666;52.284;20.890;2023-07-09T11:53:43;2.20;;;1.00;;
41141;SDS011;63666;52.284;20.890;2023-07-09T11:56:24;2.40;;;1.00;;
41141;SDS011;63666;52.284;20.890;2023-07-09T11:58:59;2.60;;;1.00;;
41141;SDS011;63666;52.284;20.890;2023-07-09T12:01:36;2.40;;;0.80;;
41141;SDS011;63666;52.284;20.890;2023-07-09T12:04:17;2.90;;;1.10;;
41141;SDS011;63666;52.284;20.890;2023-07-09T12:06:56;3.00;;;1.10;;
41141;SDS011;63666;52.284;20.890;2023-07-09T12:09:37;2.50;;;1.10;;
41141;SDS011;63666;52.284;20.890;2023-07-09T12:12:20;2.70;;;1.00;;
41141;SDS011;63666;52.284;20.890;2023-07-09T12:17:28;2.60;;;1.00;;
41141;SDS011;63666;52.284;20.890;2023-07-09T12:20:06;2.70;;;1.00;;
41141;SDS011;63666;52.284;20.890;2023-07-09T12:22:48;2.70;;;1.00;;
41141;SDS011;63666;52.284;20.890;2023-07-09T12:25:26;3.20;;;1.20;;
41141;SDS011;63666;52.284;20.890;2023-07-09T12:28:02;3.20;;;1.20;;
41141;SDS011;63666;52.284;20.890;2023-07-09T12:30:36;2.80;;;1.20;;
41141;SDS011;63666;52.284;20.890;2023-07-09T12:33:17;3.20;;;1.40;;
41141;SDS011;63666;52.284;20.890;2023-07-09T12:35:56;2.90;;;1.20;;
41141;SDS011;63666;52.284;20.890;2023-07-09T12:38:41;3.50;;;1.40;;
41141;SDS011;63666;52.284;20.890;2023-07-09T12:41:20;2.80;;;1.10;;
41141;SDS011;63666;52.284;20.890;2023-07-09T12:43:57;2.70;;;1.20;;
41141;SDS011;63666;52.284;20.890;2023-07-09T12:46:32;2.70;;;1.10;;
41141;SDS011;63666;52.284;20.890;2023-07-09T12:49:08;3.60;;;1.10;;
41141;SDS011;63666;52.284;20.890;2023-07-09T12:51:49;1.70;;;0.90;;
41141;SDS011;63666;52.284;20.890;2023-07-09T12:54:27;2.70;;;1.10;;
41141;SDS011;63666;52.284;20.890;2023-07-09T12:57:13;3.20;;;1.00;;
41141;SDS011;63666;52.284;20.890;2023-07-09T12:59:49;2.30;;;1.00;;
41141;SDS011;63666;52.284;20.890;2023-07-09T13:02:24;2.40;;;1.10;;
41141;SDS011;63666;52.284;20.890;2023-07-09T13:05:05;3.00;;;1.20;;
41141;SDS011;63666;52.284;20.890;2023-07-09T13:07:52;2.60;;;1.00;;
41141;SDS011;63666;52.284;20.890;2023-07-09T13:10:28;2.40;;;1.10;;
41141;SDS011;63666;52.284;20.890;2023-07-09T13:13:04;2.90;;;1.00;;
41141;SDS011;63666;52.284;20.890;2023-07-09T13:18:25;2.60;;;1.10;;
41141;SDS011;63666;52.284;20.890;2023-07-09T13:21:01;3.70;;;1.20;;
41141;SDS011;63666;52.284;20.890;2023-07-09T13:23:47;2.90;;;1.10;;
41141;SDS011;63666;52.284;20.890;2023-07-09T13:26:22;2.50;;;1.00;;
41141;SDS011;63666;52.284;20.890;2023-07-09T13:28:59;2.50;;;0.90;;
41141;SDS011;63666;52.284;20.890;2023-07-09T13:31:38;2.20;;;1.00;;
41141;SDS011;63666;52.284;20.890;2023-07-09T13:34:20;2.70;;;1.10;;
41141;SDS011;63666;52.284;20.890;2023-07-09T13:36:55;2.50;;;1.10;;
41141;SDS011;63666;52.284;20.890;2023-07-09T13:39:28;2.10;;;1.00;;
41141;SDS011;63666;52.284;20.890;2023-07-09T13:42:02;1.90;;;0.90;;
41141;SDS011;63666;52.284;20.890;2023-07-09T13:44:39;2.20;;;1.00;;
41141;SDS011;63666;52.284;20.890;2023-07-09T13:47:15;2.80;;;1.00;;
41141;SDS011;63666;52.284;20.890;2023-07-09T13:49:50;2.20;;;1.00;;
41141;SDS011;63666;52.284;20.890;2023-07-09T13:52:24;2.60;;;1.20;;
41141;SDS011;63666;52.284;20.890;2023-07-09T13:54:58;2.00;;;0.90;;
41141;SDS011;63666;52.284;20.890;2023-07-09T13:57:35;2.40;;;1.20;;
41141;SDS011;63666;52.284;20.890;2023-07-09T14:00:11;2.40;;;1.10;;
41141;SDS011;63666;52.284;20.890;2023-07-09T14:02:46;2.30;;;1.10;;
41141;SDS011;63666;52.284;20.890;2023-07-09T14:05:24;3.30;;;1.30;;
41141;SDS011;63666;52.284;20.890;2023-07-09T14:07:58;2.60;;;1.20;;
41141;SDS011;63666;52.284;20.890;2023-07-09T14:10:31;3.00;;;1.10;;
41141;SDS011;63666;52.284;20.890;2023-07-09T14:13:05;2.40;;;1.10;;
41141;SDS011;63666;52.284;20.890;2023-07-09T14:15:41;3.00;;;1.30;;
41141;SDS011;63666;52.284;20.890;2023-07-09T14:18:18;2.80;;;1.30;;
41141;SDS011;63666;52.284;20.890;2023-07-09T14:20:54;3.60;;;1.40;;
41141;SDS011;63666;52.284;20.890;2023-07-09T14:23:28;4.80;;;1.30;;
41141;SDS011;63666;52.284;20.890;2023-07-09T14:26:01;3.20;;;1.30;;
41141;SDS011;63666;52.284;20.890;2023-07-09T14:28:38;3.20;;;1.30;;
41141;SDS011;63666;52.284;20.890;2023-07-09T14:31:21;3.10;;;1.40;;
41141;SDS011;63666;52.284;20.890;2023-07-09T14:34:04;3.10;;;1.30;;
41141;SDS011;63666;52.284;20.890;2023-07-09T14:36:53;2.70;;;1.30;;
41141;SDS011;63666;52.284;20.890;2023-07-09T14:39:29;3.40;;;1.50;;
41141;SDS011;63666;52.284;20.890;2023-07-09T14:42:04;3.00;;;1.50;;
41141;SDS011;63666;52.284;20.890;2023-07-09T14:44:45;2.80;;;1.30;;
41141;SDS011;63666;52.284;20.890;2023-07-09T14:47:22;3.00;;;1.40;;
41141;SDS011;63666;52.284;20.890;2023-07-09T14:49:57;2.80;;;1.30;;
41141;SDS011;63666;52.284;20.890;2023-07-09T14:52:37;3.10;;;1.30;;
41141;SDS011;63666;52.284;20.890;2023-07-09T14:55:17;3.00;;;1.40;;
41141;SDS011;63666;52.284;20.890;2023-07-09T14:57:53;3.50;;;1.30;;
41141;SDS011;63666;52.284;20.890;2023-07-09T15:00:33;3.10;;;1.30;;
41141;SDS011;63666;52.284;20.890;2023-07-09T15:03:10;2.90;;;1.30;;
41141;SDS011;63666;52.284;20.890;2023-07-09T15:05:45;3.00;;;1.40;;
41141;SDS011;63666;52.284;20.890;2023-07-09T15:08:23;2.80;;;1.20;;
41141;SDS011;63666;52.284;20.890;2023-07-09T15:11:02;2.60;;;1.20;;
41141;SDS011;63666;52.284;20.890;2023-07-09T15:13:42;2.80;;;1.30;;
41141;SDS011;63666;52.284;20.890;2023-07-09T15:16:17;2.90;;;1.20;;
41141;SDS011;63666;52.284;20.890;2023-07-09T15:18:57;2.90;;;1.30;;
41141;SDS011;63666;52.284;20.890;2023-07-09T15:21:31;3.00;;;1.20;;
41141;SDS011;63666;52.284;20.890;2023-07-09T15:24:20;2.80;;;1.20;;
41141;SDS011;63666;52.284;20.890;2023-07-09T15:26:57;2.90;;;1.40;;
41141;SDS011;63666;52.284;20.890;2023-07-09T15:29:32;2.80;;;1.20;;
41141;SDS011;63666;52.284;20.890;2023-07-09T15:32:07;2.50;;;1.20;;
41141;SDS011;63666;52.284;20.890;2023-07-09T15:34:47;3.10;;;1.50;;
41141;SDS011;63666;52.284;20.890;2023-07-09T15:37:23;2.70;;;1.30;;
41141;SDS011;63666;52.284;20.890;2023-07-09T15:40:01;3.30;;;1.40;;
41141;SDS011;63666;52.284;20.890;2023-07-09T15:42:37;2.70;;;1.30;;
41141;SDS011;63666;52.284;20.890;2023-07-09T15:45:16;3.20;;;1.40;;
41141;SDS011;63666;52.284;20.890;2023-07-09T15:47:51;3.40;;;1.40;;